sensor_id;sensor_type;location;lat;lon;timestamp;temperature;humidity
4187;DHT22;2107;52.306;10.484;2023-07-13T00:00:41;16.80;99.90
4187;DHT22;2107;52.306;10.484;2023-07-13T00:03:08;16.80;99.90
4187;DHT22;2107;52.306;10.484;2023-07-13T00:05:39;16.80;99.90
4187;DHT22;2107;52.306;10.484;2023-07-13T00:08:06;16.70;99.90
4187;DHT22;2107;52.306;10.484;2023-07-13T00:10:33;16.70;99.90
4187;DHT22;2107;52.306;10.484;2023-07-13T00:13:00;16.70;99.90
4187;DHT22;2107;52.306;10.484;2023-07-13T00:15:29;16.60;99.90
4187;DHT22;2107;52.306;10.484;2023-07-13T00:17:57;16.60;99.90
4187;DHT22;2107;52.306;10.484;2023-07-13T00:20:26;16.60;99.90
4187;DHT22;2107;52.306;10.484;2023-07-13T00:22:53;16.70;99.90
4187;DHT22;2107;52.306;10.484;2023-07-13T00:25:20;16.60;99.90
4187;DHT22;2107;52.306;10.484;2023-07-13T00:27:50;16.60;99.90
4187;DHT22;2107;52.306;10.484;2023-07-13T00:30:17;16.50;99.90
4187;DHT22;2107;52.306;10.484;2023-07-13T00:32:45;16.50;99.90
4187;DHT22;2107;52.306;10.484;2023-07-13T00:35:14;16.50;99.90
4187;DHT22;2107;52.306;10.484;2023-07-13T00:37:41;16.50;99.90
4187;DHT22;2107;52.306;10.484;2023-07-13T00:40:10;16.40;99.90
4187;DHT22;2107;52.306;10.484;2023-07-13T00:42:38;16.40;99.90
4187;DHT22;2107;52.306;10.484;2023-07-13T00:46:02;16.20;99.90
4187;DHT22;2107;52.306;10.484;2023-07-13T00:47:55;16.20;99.90
4187;DHT22;2107;52.306;10.484;2023-07-13T00:50:23;16.10;99.90
4187;DHT22;2107;52.306;10.484;2023-07-13T00:52:53;16.00;99.90
4187;DHT22;2107;52.306;10.484;2023-07-13T00:55:23;15.90;99.90
4187;DHT22;2107;52.306;10.484;2023-07-13T00:57:50;15.80;99.90
4187;DHT22;2107;52.306;10.484;2023-07-13T01:00:19;15.80;99.90
4187;DHT22;2107;52.306;10.484;2023-07-13T01:02:48;15.80;99.90
4187;DHT22;2107;52.306;10.484;2023-07-13T01:05:18;15.80;99.90
4187;DHT22;2107;52.306;10.484;2023-07-13T01:07:48;15.80;99.90
4187;DHT22;2107;52.306;10.484;2023-07-13T01:10:15;15.80;99.90
4187;DHT22;2107;52.306;10.484;2023-07-13T01:12:43;15.80;99.90
4187;DHT22;2107;52.306;10.484;2023-07-13T01:15:34;15.90;99.90
4187;DHT22;2107;52.306;10.484;2023-07-13T01:18:02;15.90;99.90
4187;DHT22;2107;52.306;10.484;2023-07-13T01:20:31;15.90;99.90
4187;DHT22;2107;52.306;10.484;2023-07-13T01:23:04;15.90;99.90
4187;DHT22;2107;52.306;10.484;2023-07-13T01:25:32;15.90;99.90
4187;DHT22;2107;52.306;10.484;2023-07-13T01:27:59;15.80;99.90
4187;DHT22;2107;52.306;10.484;2023-07-13T01:30:25;15.80;99.90
4187;DHT22;2107;52.306;10.484;2023-07-13T01:32:52;15.70;99.90
4187;DHT22;2107;52.306;10.484;2023-07-13T01:35:19;15.60;99.90
4187;DHT22;2107;52.306;10.484;2023-07-13T01:37:46;15.50;99.90
4187;DHT22;2107;52.306;10.484;2023-07-13T01:40:14;15.60;99.90
4187;DHT22;2107;52.306;10.484;2023-07-13T01:42:41;15.40;99.90
4187;DHT22;2107;52.306;10.484;2023-07-13T01:45:09;15.30;99.90
4187;DHT22;2107;52.306;10.484;2023-07-13T01:47:35;15.20;99.90
4187;DHT22;2107;52.306;10.484;2023-07-13T01:50:03;15.20;99.90
4187;DHT22;2107;52.306;10.484;2023-07-13T01:52:29;15.20;99.90
4187;DHT22;2107;52.306;10.484;2023-07-13T01:54:56;15.10;99.90
4187;DHT22;2107;52.306;10.484;2023-07-13T01:57:24;15.10;99.90
4187;DHT22;2107;52.306;10.484;2023-07-13T01:59:51;15.10;99.90
4187;DHT22;2107;52.306;10.484;2023-07-13T02:02:18;15.10;99.90
4187;DHT22;2107;52.306;10.484;2023-07-13T02:04:45;15.00;99.90
4187;DHT22;2107;52.306;10.484;2023-07-13T02:07:12;15.00;99.90
4187;DHT22;2107;52.306;10.484;2023-07-13T02:09:40;15.00;99.90
4187;DHT22;2107;52.306;10.484;2023-07-13T02:12:08;15.00;99.90
4187;DHT22;2107;52.306;10.484;2023-07-13T02:14:36;14.90;99.90
4187;DHT22;2107;52.306;10.484;2023-07-13T02:17:04;14.80;99.90
4187;DHT22;2107;52.306;10.484;2023-07-13T02:19:31;14.70;99.90
4187;DHT22;2107;52.306;10.484;2023-07-13T02:21:57;14.70;99.90
4187;DHT22;2107;52.306;10.484;2023-07-13T02:24:24;14.70;99.90
4187;DHT22;2107;52.306;10.484;2023-07-13T02:26:52;14.60;99.90
4187;DHT22;2107;52.306;10.484;2023-07-13T02:29:19;14.60;99.90
4187;DHT22;2107;52.306;10.484;2023-07-13T02:31:47;14.60;99.90
4187;DHT22;2107;52.306;10.484;2023-07-13T02:34:14;14.60;99.90
4187;DHT22;2107;52.306;10.484;2023-07-13T02:36:41;14.60;99.90
4187;DHT22;2107;52.306;10.484;2023-07-13T02:39:08;14.50;99.90
4187;DHT22;2107;52.306;10.484;2023-07-13T02:41:35;14.60;99.90
4187;DHT22;2107;52.306;10.484;2023-07-13T02:44:03;14.60;99.90
4187;DHT22;2107;52.306;10.484;2023-07-13T02:46:30;14.60;99.90
4187;DHT22;2107;52.306;10.484;2023-07-13T02:48:58;14.60;99.90
4187;DHT22;2107;52.306;10.484;2023-07-13T02:51:25;14.60;99.90
4187;DHT22;2107;52.306;10.484;2023-07-13T02:53:52;14.60;99.90
4187;DHT22;2107;52.306;10.484;2023-07-13T02:56:23;14.70;99.90
4187;DHT22;2107;52.306;10.484;2023-07-13T02:58:50;14.60;99.90
4187;DHT22;2107;52.306;10.484;2023-07-13T03:01:17;14.60;99.90
4187;DHT22;2107;52.306;10.484;2023-07-13T03:03:44;14.50;99.90
4187;DHT22;2107;52.306;10.484;2023-07-13T03:06:13;14.50;99.90
4187;DHT22;2107;52.306;10.484;2023-07-13T03:08:41;14.50;99.90
4187;DHT22;2107;52.306;10.484;2023-07-13T03:11:14;14.50;99.90
4187;DHT22;2107;52.306;10.484;2023-07-13T03:13:41;14.40;99.90
4187;DHT22;2107;52.306;10.484;2023-07-13T03:16:09;14.40;99.90
4187;DHT22;2107;52.306;10.484;2023-07-13T03:18:37;14.30;99.90
4187;DHT22;2107;52.306;10.484;2023-07-13T03:21:05;14.40;99.90
4187;DHT22;2107;52.306;10.484;2023-07-13T03:23:33;14.30;99.90
4187;DHT22;2107;52.306;10.484;2023-07-13T03:26:02;14.40;99.90
4187;DHT22;2107;52.306;10.484;2023-07-13T03:28:29;14.30;99.90
4187;DHT22;2107;52.306;10.484;2023-07-13T03:31:04;14.40;99.90
4187;DHT22;2107;52.306;10.484;2023-07-13T03:33:31;14.40;99.90
4187;DHT22;2107;52.306;10.484;2023-07-13T03:35:58;14.50;99.90
4187;DHT22;2107;52.306;10.484;2023-07-13T03:38:25;14.50;99.90
4187;DHT22;2107;52.306;10.484;2023-07-13T03:40:54;14.50;99.90
4187;DHT22;2107;52.306;10.484;2023-07-13T03:43:21;14.50;99.90
4187;DHT22;2107;52.306;10.484;2023-07-13T03:45:47;14.50;99.90
4187;DHT22;2107;52.306;10.484;2023-07-13T03:48:14;14.50;99.90
4187;DHT22;2107;52.306;10.484;2023-07-13T03:50:41;14.50;99.90
4187;DHT22;2107;52.306;10.484;2023-07-13T03:53:09;14.60;99.90
4187;DHT22;2107;52.306;10.484;2023-07-13T03:55:37;14.70;99.90
4187;DHT22;2107;52.306;10.484;2023-07-13T03:58:28;14.80;99.90
4187;DHT22;2107;52.306;10.484;2023-07-13T04:00:55;14.90;99.90
4187;DHT22;2107;52.306;10.484;2023-07-13T04:03:23;15.00;99.90
4187;DHT22;2107;52.306;10.484;2023-07-13T04:05:50;15.10;99.90
4187;DHT22;2107;52.306;10.484;2023-07-13T04:08:17;15.30;99.90
4187;DHT22;2107;52.306;10.484;2023-07-13T04:10:44;15.60;99.90
4187;DHT22;2107;52.306;10.484;2023-07-13T04:13:11;15.80;99.90
4187;DHT22;2107;52.306;10.484;2023-07-13T04:15:39;15.90;99.90
4187;DHT22;2107;52.306;10.484;2023-07-13T04:18:06;16.10;99.90
4187;DHT22;2107;52.306;10.484;2023-07-13T04:20:33;16.40;99.90
4187;DHT22;2107;52.306;10.484;2023-07-13T04:23:00;16.70;99.90
4187;DHT22;2107;52.306;10.484;2023-07-13T04:25:27;16.80;99.90
4187;DHT22;2107;52.306;10.484;2023-07-13T04:27:54;16.90;99.90
4187;DHT22;2107;52.306;10.484;2023-07-13T04:30:22;17.10;99.90
4187;DHT22;2107;52.306;10.484;2023-07-13T04:32:51;17.20;99.90
4187;DHT22;2107;52.306;10.484;2023-07-13T04:35:18;17.60;99.90
4187;DHT22;2107;52.306;10.484;2023-07-13T04:37:46;17.90;99.90
4187;DHT22;2107;52.306;10.484;2023-07-13T04:40:14;18.10;99.90
4187;DHT22;2107;52.306;10.484;2023-07-13T04:42:41;18.10;99.90
4187;DHT22;2107;52.306;10.484;2023-07-13T04:45:08;18.20;99.90
4187;DHT22;2107;52.306;10.484;2023-07-13T04:47:35;18.40;99.90
4187;DHT22;2107;52.306;10.484;2023-07-13T04:50:04;18.60;99.90
4187;DHT22;2107;52.306;10.484;2023-07-13T04:52:30;18.70;99.90
4187;DHT22;2107;52.306;10.484;2023-07-13T04:54:58;18.70;99.90
4187;DHT22;2107;52.306;10.484;2023-07-13T04:57:25;18.90;99.90
4187;DHT22;2107;52.306;10.484;2023-07-13T04:59:52;18.70;99.90
4187;DHT22;2107;52.306;10.484;2023-07-13T05:02:20;18.90;99.90
4187;DHT22;2107;52.306;10.484;2023-07-13T05:04:48;18.70;99.90
4187;DHT22;2107;52.306;10.484;2023-07-13T05:07:16;18.40;99.90
4187;DHT22;2107;52.306;10.484;2023-07-13T05:09:43;18.40;99.90
4187;DHT22;2107;52.306;10.484;2023-07-13T05:12:09;18.10;99.90
4187;DHT22;2107;52.306;10.484;2023-07-13T05:14:36;18.00;99.90
4187;DHT22;2107;52.306;10.484;2023-07-13T05:19:29;18.00;99.90
4187;DHT22;2107;52.306;10.484;2023-07-13T05:21:56;17.80;99.90
4187;DHT22;2107;52.306;10.484;2023-07-13T05:24:24;17.50;99.90
4187;DHT22;2107;52.306;10.484;2023-07-13T05:26:54;17.60;99.90
4187;DHT22;2107;52.306;10.484;2023-07-13T05:29:21;17.50;99.90
4187;DHT22;2107;52.306;10.484;2023-07-13T05:31:48;17.40;99.90
4187;DHT22;2107;52.306;10.484;2023-07-13T05:34:15;17.60;99.90
4187;DHT22;2107;52.306;10.484;2023-07-13T05:36:42;18.00;99.90
4187;DHT22;2107;52.306;10.484;2023-07-13T05:39:09;18.40;99.90
4187;DHT22;2107;52.306;10.484;2023-07-13T05:41:38;18.60;99.90
4187;DHT22;2107;52.306;10.484;2023-07-13T05:44:05;18.70;99.90
4187;DHT22;2107;52.306;10.484;2023-07-13T05:46:32;18.80;99.90
4187;DHT22;2107;52.306;10.484;2023-07-13T05:48:59;18.80;99.90
4187;DHT22;2107;52.306;10.484;2023-07-13T05:51:25;18.80;99.90
4187;DHT22;2107;52.306;10.484;2023-07-13T05:53:52;18.80;99.90
4187;DHT22;2107;52.306;10.484;2023-07-13T05:56:19;18.90;99.90
4187;DHT22;2107;52.306;10.484;2023-07-13T05:58:48;19.10;99.90
4187;DHT22;2107;52.306;10.484;2023-07-13T06:01:16;19.10;99.90
4187;DHT22;2107;52.306;10.484;2023-07-13T06:03:43;19.30;99.90
4187;DHT22;2107;52.306;10.484;2023-07-13T06:06:10;19.60;99.90
4187;DHT22;2107;52.306;10.484;2023-07-13T06:08:37;19.80;99.90
4187;DHT22;2107;52.306;10.484;2023-07-13T06:11:06;19.90;99.90
4187;DHT22;2107;52.306;10.484;2023-07-13T06:13:33;20.00;99.90
4187;DHT22;2107;52.306;10.484;2023-07-13T06:16:01;19.90;99.90
4187;DHT22;2107;52.306;10.484;2023-07-13T06:18:30;19.80;99.90
4187;DHT22;2107;52.306;10.484;2023-07-13T06:20:57;19.80;99.90
4187;DHT22;2107;52.306;10.484;2023-07-13T06:23:24;20.20;99.90
4187;DHT22;2107;52.306;10.484;2023-07-13T06:25:52;20.70;99.90
4187;DHT22;2107;52.306;10.484;2023-07-13T06:28:19;21.20;99.90
4187;DHT22;2107;52.306;10.484;2023-07-13T06:30:45;21.90;99.90
4187;DHT22;2107;52.306;10.484;2023-07-13T06:33:14;22.60;99.90
4187;DHT22;2107;52.306;10.484;2023-07-13T06:35:40;22.50;99.90
4187;DHT22;2107;52.306;10.484;2023-07-13T06:38:07;22.20;99.90
4187;DHT22;2107;52.306;10.484;2023-07-13T06:40:34;22.40;99.90
4187;DHT22;2107;52.306;10.484;2023-07-13T06:43:01;22.80;99.90
4187;DHT22;2107;52.306;10.484;2023-07-13T06:45:28;23.40;99.90
4187;DHT22;2107;52.306;10.484;2023-07-13T06:47:55;23.50;99.90
4187;DHT22;2107;52.306;10.484;2023-07-13T06:50:23;23.90;99.90
4187;DHT22;2107;52.306;10.484;2023-07-13T06:52:50;24.90;99.90
4187;DHT22;2107;52.306;10.484;2023-07-13T06:55:18;25.50;99.90
4187;DHT22;2107;52.306;10.484;2023-07-13T06:57:45;25.80;99.90
4187;DHT22;2107;52.306;10.484;2023-07-13T07:00:13;25.50;99.90
4187;DHT22;2107;52.306;10.484;2023-07-13T07:02:39;25.60;99.90
4187;DHT22;2107;52.306;10.484;2023-07-13T07:05:07;25.20;99.90
4187;DHT22;2107;52.306;10.484;2023-07-13T07:07:35;24.90;99.90
4187;DHT22;2107;52.306;10.484;2023-07-13T07:10:02;25.20;99.90
4187;DHT22;2107;52.306;10.484;2023-07-13T07:12:29;25.80;98.70
4187;DHT22;2107;52.306;10.484;2023-07-13T07:14:56;25.90;98.60
4187;DHT22;2107;52.306;10.484;2023-07-13T07:17:23;26.30;99.50
4187;DHT22;2107;52.306;10.484;2023-07-13T07:19:50;25.90;96.70
4187;DHT22;2107;52.306;10.484;2023-07-13T07:22:19;25.80;98.10
4187;DHT22;2107;52.306;10.484;2023-07-13T07:24:47;25.00;95.00
4187;DHT22;2107;52.306;10.484;2023-07-13T07:27:14;24.80;96.10
4187;DHT22;2107;52.306;10.484;2023-07-13T07:29:41;25.20;96.30
4187;DHT22;2107;52.306;10.484;2023-07-13T07:32:08;25.50;95.80
4187;DHT22;2107;52.306;10.484;2023-07-13T07:34:35;26.00;95.50
4187;DHT22;2107;52.306;10.484;2023-07-13T07:37:03;26.00;93.90
4187;DHT22;2107;52.306;10.484;2023-07-13T07:39:30;26.00;93.20
4187;DHT22;2107;52.306;10.484;2023-07-13T07:41:58;25.80;93.20
4187;DHT22;2107;52.306;10.484;2023-07-13T07:44:25;25.70;91.90
4187;DHT22;2107;52.306;10.484;2023-07-13T07:46:52;25.40;91.10
4187;DHT22;2107;52.306;10.484;2023-07-13T07:49:19;24.90;91.60
4187;DHT22;2107;52.306;10.484;2023-07-13T07:51:46;24.90;92.00
4187;DHT22;2107;52.306;10.484;2023-07-13T07:54:13;24.90;92.60
4187;DHT22;2107;52.306;10.484;2023-07-13T07:56:40;24.70;92.20
4187;DHT22;2107;52.306;10.484;2023-07-13T07:59:08;24.70;91.50
4187;DHT22;2107;52.306;10.484;2023-07-13T08:01:35;24.50;91.70
4187;DHT22;2107;52.306;10.484;2023-07-13T08:04:02;24.00;92.20
4187;DHT22;2107;52.306;10.484;2023-07-13T08:06:29;23.80;91.40
4187;DHT22;2107;52.306;10.484;2023-07-13T08:08:59;23.70;92.20
4187;DHT22;2107;52.306;10.484;2023-07-13T08:11:27;23.70;92.70
4187;DHT22;2107;52.306;10.484;2023-07-13T08:13:53;23.80;92.40
4187;DHT22;2107;52.306;10.484;2023-07-13T08:16:22;23.60;91.80
4187;DHT22;2107;52.306;10.484;2023-07-13T08:18:49;23.10;92.70
4187;DHT22;2107;52.306;10.484;2023-07-13T08:21:16;23.40;92.90
4187;DHT22;2107;52.306;10.484;2023-07-13T08:23:45;23.30;92.40
4187;DHT22;2107;52.306;10.484;2023-07-13T08:26:12;23.30;93.00
4187;DHT22;2107;52.306;10.484;2023-07-13T08:28:40;23.50;92.00
4187;DHT22;2107;52.306;10.484;2023-07-13T08:31:08;23.00;92.90
4187;DHT22;2107;52.306;10.484;2023-07-13T08:33:37;23.20;92.90
4187;DHT22;2107;52.306;10.484;2023-07-13T08:36:04;23.00;92.40
4187;DHT22;2107;52.306;10.484;2023-07-13T08:38:31;23.50;93.50
4187;DHT22;2107;52.306;10.484;2023-07-13T08:40:58;24.00;92.40
4187;DHT22;2107;52.306;10.484;2023-07-13T08:43:27;24.30;92.30
4187;DHT22;2107;52.306;10.484;2023-07-13T08:45:59;24.80;92.00
4187;DHT22;2107;52.306;10.484;2023-07-13T08:48:28;24.90;91.20
4187;DHT22;2107;52.306;10.484;2023-07-13T08:51:02;25.10;91.20
4187;DHT22;2107;52.306;10.484;2023-07-13T08:53:34;25.10;92.00
4187;DHT22;2107;52.306;10.484;2023-07-13T08:56:03;24.80;91.70
4187;DHT22;2107;52.306;10.484;2023-07-13T08:58:32;24.50;90.30
4187;DHT22;2107;52.306;10.484;2023-07-13T09:01:05;24.50;90.80
4187;DHT22;2107;52.306;10.484;2023-07-13T09:03:40;24.60;91.00
4187;DHT22;2107;52.306;10.484;2023-07-13T09:06:11;25.20;90.90
4187;DHT22;2107;52.306;10.484;2023-07-13T09:08:49;25.70;90.40
4187;DHT22;2107;52.306;10.484;2023-07-13T09:11:33;25.10;90.10
4187;DHT22;2107;52.306;10.484;2023-07-13T09:14:10;24.40;88.40
4187;DHT22;2107;52.306;10.484;2023-07-13T09:16:40;24.30;90.60
4187;DHT22;2107;52.306;10.484;2023-07-13T09:19:19;24.50;91.00
4187;DHT22;2107;52.306;10.484;2023-07-13T09:21:50;24.70;90.90
4187;DHT22;2107;52.306;10.484;2023-07-13T09:24:28;24.40;89.50
4187;DHT22;2107;52.306;10.484;2023-07-13T09:26:56;23.40;90.00
4187;DHT22;2107;52.306;10.484;2023-07-13T09:29:28;24.00;91.10
4187;DHT22;2107;52.306;10.484;2023-07-13T09:31:58;24.20;90.60
4187;DHT22;2107;52.306;10.484;2023-07-13T09:34:28;24.50;90.90
4187;DHT22;2107;52.306;10.484;2023-07-13T09:36:57;24.80;90.10
4187;DHT22;2107;52.306;10.484;2023-07-13T09:39:27;24.30;90.30
4187;DHT22;2107;52.306;10.484;2023-07-13T09:41:59;24.70;90.50
4187;DHT22;2107;52.306;10.484;2023-07-13T09:44:29;25.00;90.20
4187;DHT22;2107;52.306;10.484;2023-07-13T09:46:58;25.00;88.70
4187;DHT22;2107;52.306;10.484;2023-07-13T09:49:25;25.50;88.90
4187;DHT22;2107;52.306;10.484;2023-07-13T09:52:00;25.30;88.80
4187;DHT22;2107;52.306;10.484;2023-07-13T09:54:27;24.80;89.50
4187;DHT22;2107;52.306;10.484;2023-07-13T09:56:55;24.80;88.90
4187;DHT22;2107;52.306;10.484;2023-07-13T09:59:24;24.80;89.60
4187;DHT22;2107;52.306;10.484;2023-07-13T10:01:51;24.90;90.10
4187;DHT22;2107;52.306;10.484;2023-07-13T10:04:19;24.80;90.20
4187;DHT22;2107;52.306;10.484;2023-07-13T10:06:47;25.10;90.00
4187;DHT22;2107;52.306;10.484;2023-07-13T10:09:17;25.80;90.10
4187;DHT22;2107;52.306;10.484;2023-07-13T10:11:45;26.20;90.30
4187;DHT22;2107;52.306;10.484;2023-07-13T10:14:14;26.70;84.90
4187;DHT22;2107;52.306;10.484;2023-07-13T10:16:43;25.40;85.50
4187;DHT22;2107;52.306;10.484;2023-07-13T10:19:14;25.10;87.50
4187;DHT22;2107;52.306;10.484;2023-07-13T10:21:46;25.40;87.70
4187;DHT22;2107;52.306;10.484;2023-07-13T10:24:20;26.10;87.30
4187;DHT22;2107;52.306;10.484;2023-07-13T10:26:52;26.10;87.70
4187;DHT22;2107;52.306;10.484;2023-07-13T10:29:22;25.90;85.70
4187;DHT22;2107;52.306;10.484;2023-07-13T10:31:50;25.80;86.30
4187;DHT22;2107;52.306;10.484;2023-07-13T10:34:18;25.90;84.50
4187;DHT22;2107;52.306;10.484;2023-07-13T10:36:46;26.00;87.20
4187;DHT22;2107;52.306;10.484;2023-07-13T10:39:18;25.60;84.30
4187;DHT22;2107;52.306;10.484;2023-07-13T10:41:48;25.60;85.50
4187;DHT22;2107;52.306;10.484;2023-07-13T10:44:22;24.90;86.10
4187;DHT22;2107;52.306;10.484;2023-07-13T10:46:53;25.50;87.30
4187;DHT22;2107;52.306;10.484;2023-07-13T10:49:21;26.50;85.40
4187;DHT22;2107;52.306;10.484;2023-07-13T10:51:48;26.50;83.10
4187;DHT22;2107;52.306;10.484;2023-07-13T10:54:21;26.60;82.90
4187;DHT22;2107;52.306;10.484;2023-07-13T10:56:54;26.80;82.50
4187;DHT22;2107;52.306;10.484;2023-07-13T10:59:33;26.90;81.20
4187;DHT22;2107;52.306;10.484;2023-07-13T11:02:22;27.00;80.00
4187;DHT22;2107;52.306;10.484;2023-07-13T11:04:53;27.20;81.60
4187;DHT22;2107;52.306;10.484;2023-07-13T11:07:23;27.00;79.60
4187;DHT22;2107;52.306;10.484;2023-07-13T11:09:53;25.90;79.90
4187;DHT22;2107;52.306;10.484;2023-07-13T11:12:29;24.80;83.30
4187;DHT22;2107;52.306;10.484;2023-07-13T11:15:30;24.30;84.50
4187;DHT22;2107;52.306;10.484;2023-07-13T11:17:57;25.10;85.40
4187;DHT22;2107;52.306;10.484;2023-07-13T11:20:34;25.70;85.50
4187;DHT22;2107;52.306;10.484;2023-07-13T11:23:26;26.40;82.10
4187;DHT22;2107;52.306;10.484;2023-07-13T11:25:55;26.60;82.40
4187;DHT22;2107;52.306;10.484;2023-07-13T11:28:24;27.30;81.70
4187;DHT22;2107;52.306;10.484;2023-07-13T11:31:13;26.40;78.50
4187;DHT22;2107;52.306;10.484;2023-07-13T11:33:56;26.90;75.30
4187;DHT22;2107;52.306;10.484;2023-07-13T11:36:30;26.80;75.60
4187;DHT22;2107;52.306;10.484;2023-07-13T11:39:01;26.30;74.90
4187;DHT22;2107;52.306;10.484;2023-07-13T11:41:32;26.40;77.70
4187;DHT22;2107;52.306;10.484;2023-07-13T11:44:12;26.40;76.70
4187;DHT22;2107;52.306;10.484;2023-07-13T11:46:43;26.50;77.20
4187;DHT22;2107;52.306;10.484;2023-07-13T11:49:15;27.20;77.30
4187;DHT22;2107;52.306;10.484;2023-07-13T11:51:43;28.00;74.30
4187;DHT22;2107;52.306;10.484;2023-07-13T11:54:21;27.50;70.70
4187;DHT22;2107;52.306;10.484;2023-07-13T11:56:50;27.10;70.40
4187;DHT22;2107;52.306;10.484;2023-07-13T11:59:18;27.30;70.30
4187;DHT22;2107;52.306;10.484;2023-07-13T12:01:49;26.90;68.50
4187;DHT22;2107;52.306;10.484;2023-07-13T12:04:22;26.90;70.70
4187;DHT22;2107;52.306;10.484;2023-07-13T12:06:55;27.40;71.50
4187;DHT22;2107;52.306;10.484;2023-07-13T12:09:22;26.70;66.50
4187;DHT22;2107;52.306;10.484;2023-07-13T12:11:52;27.40;66.50
4187;DHT22;2107;52.306;10.484;2023-07-13T12:14:19;27.20;65.90
4187;DHT22;2107;52.306;10.484;2023-07-13T12:16:50;27.20;65.50
4187;DHT22;2107;52.306;10.484;2023-07-13T12:19:18;27.10;66.80
4187;DHT22;2107;52.306;10.484;2023-07-13T12:21:47;27.50;68.50
4187;DHT22;2107;52.306;10.484;2023-07-13T12:24:15;27.50;68.30
4187;DHT22;2107;52.306;10.484;2023-07-13T12:26:42;27.80;69.20
4187;DHT22;2107;52.306;10.484;2023-07-13T12:29:16;26.90;67.40
4187;DHT22;2107;52.306;10.484;2023-07-13T12:31:45;27.20;68.60
4187;DHT22;2107;52.306;10.484;2023-07-13T12:34:13;27.40;68.90
4187;DHT22;2107;52.306;10.484;2023-07-13T12:36:46;27.20;70.50
4187;DHT22;2107;52.306;10.484;2023-07-13T12:39:16;27.00;70.00
4187;DHT22;2107;52.306;10.484;2023-07-13T12:41:44;27.90;68.70
4187;DHT22;2107;52.306;10.484;2023-07-13T12:44:14;28.00;67.90
4187;DHT22;2107;52.306;10.484;2023-07-13T12:46:56;28.70;68.20
4187;DHT22;2107;52.306;10.484;2023-07-13T12:49:27;28.80;64.40
4187;DHT22;2107;52.306;10.484;2023-07-13T12:51:59;28.60;63.50
4187;DHT22;2107;52.306;10.484;2023-07-13T12:54:27;28.60;64.20
4187;DHT22;2107;52.306;10.484;2023-07-13T12:56:56;29.70;63.90
4187;DHT22;2107;52.306;10.484;2023-07-13T12:59:30;29.50;59.60
4187;DHT22;2107;52.306;10.484;2023-07-13T13:01:59;29.90;60.70
4187;DHT22;2107;52.306;10.484;2023-07-13T13:04:25;29.80;59.00
4187;DHT22;2107;52.306;10.484;2023-07-13T13:07:02;30.10;58.80
4187;DHT22;2107;52.306;10.484;2023-07-13T13:09:29;30.10;58.90
4187;DHT22;2107;52.306;10.484;2023-07-13T13:11:56;29.30;59.60
4187;DHT22;2107;52.306;10.484;2023-07-13T13:14:24;30.30;57.50
4187;DHT22;2107;52.306;10.484;2023-07-13T13:16:52;30.60;52.80
4187;DHT22;2107;52.306;10.484;2023-07-13T13:19:22;31.00;51.80
4187;DHT22;2107;52.306;10.484;2023-07-13T13:21:50;30.30;52.70
4187;DHT22;2107;52.306;10.484;2023-07-13T13:24:19;31.20;52.20
4187;DHT22;2107;52.306;10.484;2023-07-13T13:26:47;30.80;50.80
4187;DHT22;2107;52.306;10.484;2023-07-13T13:29:16;31.90;50.60
4187;DHT22;2107;52.306;10.484;2023-07-13T13:31:45;32.50;48.10
4187;DHT22;2107;52.306;10.484;2023-07-13T13:34:15;32.30;48.00
4187;DHT22;2107;52.306;10.484;2023-07-13T13:36:43;32.30;48.20
4187;DHT22;2107;52.306;10.484;2023-07-13T13:39:19;30.10;49.20
4187;DHT22;2107;52.306;10.484;2023-07-13T13:41:47;31.30;50.70
4187;DHT22;2107;52.306;10.484;2023-07-13T13:44:15;32.50;49.20
4187;DHT22;2107;52.306;10.484;2023-07-13T13:46:45;32.20;47.50
4187;DHT22;2107;52.306;10.484;2023-07-13T13:49:15;31.60;48.10
4187;DHT22;2107;52.306;10.484;2023-07-13T13:51:43;28.60;51.50
4187;DHT22;2107;52.306;10.484;2023-07-13T13:54:12;27.90;53.60
4187;DHT22;2107;52.306;10.484;2023-07-13T13:56:41;27.30;55.40
4187;DHT22;2107;52.306;10.484;2023-07-13T13:59:08;26.70;56.80
4187;DHT22;2107;52.306;10.484;2023-07-13T14:01:36;26.30;57.60
4187;DHT22;2107;52.306;10.484;2023-07-13T14:04:05;25.90;58.30
4187;DHT22;2107;52.306;10.484;2023-07-13T14:06:34;25.80;58.40
4187;DHT22;2107;52.306;10.484;2023-07-13T14:09:01;25.60;57.90
4187;DHT22;2107;52.306;10.484;2023-07-13T14:11:29;25.20;58.50
4187;DHT22;2107;52.306;10.484;2023-07-13T14:13:59;24.90;60.00
4187;DHT22;2107;52.306;10.484;2023-07-13T14:16:30;24.10;77.50
4187;DHT22;2107;52.306;10.484;2023-07-13T14:18:58;23.00;90.00
4187;DHT22;2107;52.306;10.484;2023-07-13T14:21:28;21.20;95.10
4187;DHT22;2107;52.306;10.484;2023-07-13T14:23:55;19.90;99.90
4187;DHT22;2107;52.306;10.484;2023-07-13T14:26:24;19.60;99.90
4187;DHT22;2107;52.306;10.484;2023-07-13T14:28:53;19.40;99.90
4187;DHT22;2107;52.306;10.484;2023-07-13T14:31:21;19.50;99.90
4187;DHT22;2107;52.306;10.484;2023-07-13T14:33:48;19.50;99.90
4187;DHT22;2107;52.306;10.484;2023-07-13T14:36:26;19.30;99.90
4187;DHT22;2107;52.306;10.484;2023-07-13T14:38:55;19.10;99.90
4187;DHT22;2107;52.306;10.484;2023-07-13T14:41:22;18.90;99.90
4187;DHT22;2107;52.306;10.484;2023-07-13T14:43:49;18.70;99.90
4187;DHT22;2107;52.306;10.484;2023-07-13T14:46:26;18.30;99.90
4187;DHT22;2107;52.306;10.484;2023-07-13T14:49:02;18.20;99.90
4187;DHT22;2107;52.306;10.484;2023-07-13T14:51:31;18.10;99.90
4187;DHT22;2107;52.306;10.484;2023-07-13T14:54:01;18.50;99.90
4187;DHT22;2107;52.306;10.484;2023-07-13T14:56:28;19.30;99.90
4187;DHT22;2107;52.306;10.484;2023-07-13T14:58:55;20.80;99.90
4187;DHT22;2107;52.306;10.484;2023-07-13T15:01:22;20.90;99.90
4187;DHT22;2107;52.306;10.484;2023-07-13T15:03:51;20.50;99.90
4187;DHT22;2107;52.306;10.484;2023-07-13T15:06:19;20.20;99.90
4187;DHT22;2107;52.306;10.484;2023-07-13T15:08:47;19.60;99.90
4187;DHT22;2107;52.306;10.484;2023-07-13T15:11:16;19.40;99.90
4187;DHT22;2107;52.306;10.484;2023-07-13T15:13:43;19.00;99.90
4187;DHT22;2107;52.306;10.484;2023-07-13T15:16:16;18.90;99.90
4187;DHT22;2107;52.306;10.484;2023-07-13T15:18:44;18.80;99.90
4187;DHT22;2107;52.306;10.484;2023-07-13T15:21:14;18.90;99.90
4187;DHT22;2107;52.306;10.484;2023-07-13T15:23:42;18.80;99.90
4187;DHT22;2107;52.306;10.484;2023-07-13T15:26:14;18.70;99.90
4187;DHT22;2107;52.306;10.484;2023-07-13T15:28:41;18.50;99.90
4187;DHT22;2107;52.306;10.484;2023-07-13T15:31:22;18.20;99.90
4187;DHT22;2107;52.306;10.484;2023-07-13T15:33:50;18.00;99.90
4187;DHT22;2107;52.306;10.484;2023-07-13T15:36:18;18.10;99.90
4187;DHT22;2107;52.306;10.484;2023-07-13T15:38:46;18.50;99.90
4187;DHT22;2107;52.306;10.484;2023-07-13T15:41:18;19.20;99.90
4187;DHT22;2107;52.306;10.484;2023-07-13T15:43:45;19.40;99.90
4187;DHT22;2107;52.306;10.484;2023-07-13T15:46:12;19.40;99.90
4187;DHT22;2107;52.306;10.484;2023-07-13T15:48:39;19.40;99.90
4187;DHT22;2107;52.306;10.484;2023-07-13T15:51:12;19.20;99.90
4187;DHT22;2107;52.306;10.484;2023-07-13T15:53:41;19.00;99.90
4187;DHT22;2107;52.306;10.484;2023-07-13T15:56:19;18.70;99.90
4187;DHT22;2107;52.306;10.484;2023-07-13T15:58:47;18.50;99.90